メインページ
METAR-TAF:

METAR-TAF

空港 :

グラン・カナリア島, スペイン

グラン・カナリア空港

緯度: 27-56N, 経度: 015-23W, 海抜: 23m

現時点の気象観測

当レポートは30分前の23:30(UTC)に作成
南/南西の風 4kt
気温 17°C
湿度 82%
気圧 1007 hPa
視程10km以上
高度3000ftの雲はほとんどない

METAR: GCLP 242330Z 21004KT 9999 FEW030 17/14 Q1007 NOSIG

時間: 00:00 (00:00 UTC)

予報

当レポートは4時間0分前の20:00(UTC)に作成
予報は24日の 21時(UTC)から 25日の 21時(UTC)まで有効
南/南西の風 15kt
視程10km以上
高度2500ftの雲は散在している
25日の 08時(UTC)から 25日の 20時(UTC)まで一時的に
南/南西の風 25kt、最大35ktの突風を伴う
確率 40% :
25日の 15時(UTC)から 25日の 19時(UTC)まで一時的に
南/南西の風 35kt、最大50ktの突風を伴う
25日の 10時(UTC)から 25日の 21時(UTC)まで一時的に
視程: 4900m
高度3000ftの雲は散在している, 塔状積雲.
にわか雨
確率 40% :
25日の 10時(UTC)から 25日の 21時(UTC)まで一時的に
高度3000ftの雲は散在している, 積乱雲.
激しい雷雨

TAF: GCLP 242000Z 2421/2521 20015KT 9999 SCT025 TX21/2514Z TN14/2506Z TEMPO 2508/2520 20025G35KT PROB40 TEMPO 2515/2519 20035G50KT TEMPO 2510/2521 4900 SHRA SCT030TCU PROB40 TEMPO 2510/2521 TS SCT030CB

4,000以上の空港の気象観測と天気予報(METAR報とTAF報)

利用可能な観測所は地図上に黄色い丸と赤い丸で示す。

丸の上にカーソルを重ねると観測所名を参照できる。

次にクリックすると気象観測と天気予報を参照できる。

マップの切り替え:黒色「×」印の緑ボタンをクリックして拡大、「-」印の緑ボタンをクリックして縮小、緑色の三角印をクリックして隣りの地図に切り替え


METAR-TAF: